sensor_id;sensor_type;location;lat;lon;timestamp;P1;durP1;ratioP1;P2;durP2;ratioP2
45812;SDS011;31519;45.408;10.962;2023-01-24T00:01:24;0.70;;;0.70;;
45812;SDS011;31519;45.408;10.962;2023-01-24T00:03:52;2.17;;;1.50;;
45812;SDS011;31519;45.408;10.962;2023-01-24T00:06:21;2.00;;;1.63;;
45812;SDS011;31519;45.408;10.962;2023-01-24T00:08:49;1.40;;;1.30;;
45812;SDS011;31519;45.408;10.962;2023-01-24T00:11:18;5.07;;;2.15;;
45812;SDS011;31519;45.408;10.962;2023-01-24T00:13:46;1.55;;;1.40;;
45812;SDS011;31519;45.408;10.962;2023-01-24T00:16:15;2.72;;;1.45;;
45812;SDS011;31519;45.408;10.962;2023-01-24T00:18:45;3.85;;;1.30;;
45812;SDS011;31519;45.408;10.962;2023-01-24T00:21:15;3.60;;;1.50;;
45812;SDS011;31519;45.408;10.962;2023-01-24T00:23:46;2.17;;;1.45;;
45812;SDS011;31519;45.408;10.962;2023-01-24T00:26:16;2.38;;;1.25;;
45812;SDS011;31519;45.408;10.962;2023-01-24T00:28:45;1.25;;;0.90;;
45812;SDS011;31519;45.408;10.962;2023-01-24T00:31:15;2.08;;;1.50;;
45812;SDS011;31519;45.408;10.962;2023-01-24T00:33:43;3.05;;;1.50;;
45812;SDS011;31519;45.408;10.962;2023-01-24T00:36:11;2.30;;;1.60;;
45812;SDS011;31519;45.408;10.962;2023-01-24T00:38:40;1.73;;;1.40;;
45812;SDS011;31519;45.408;10.962;2023-01-24T00:41:08;2.75;;;1.67;;
45812;SDS011;31519;45.408;10.962;2023-01-24T00:43:37;2.30;;;1.38;;
45812;SDS011;31519;45.408;10.962;2023-01-24T00:46:06;1.17;;;1.00;;
45812;SDS011;31519;45.408;10.962;2023-01-24T00:48:36;3.55;;;1.13;;
45812;SDS011;31519;45.408;10.962;2023-01-24T00:51:05;1.00;;;0.90;;
45812;SDS011;31519;45.408;10.962;2023-01-24T00:53:33;0.88;;;0.80;;
45812;SDS011;31519;45.408;10.962;2023-01-24T00:56:02;1.30;;;1.20;;
45812;SDS011;31519;45.408;10.962;2023-01-24T00:58:31;1.75;;;0.85;;
45812;SDS011;31519;45.408;10.962;2023-01-24T01:01:04;0.60;;;0.60;;
45812;SDS011;31519;45.408;10.962;2023-01-24T01:03:32;2.38;;;0.80;;
45812;SDS011;31519;45.408;10.962;2023-01-24T01:06:02;1.15;;;0.80;;
45812;SDS011;31519;45.408;10.962;2023-01-24T01:08:32;1.15;;;1.00;;
45812;SDS011;31519;45.408;10.962;2023-01-24T01:11:01;3.53;;;1.27;;
45812;SDS011;31519;45.408;10.962;2023-01-24T01:13:29;1.75;;;1.10;;
45812;SDS011;31519;45.408;10.962;2023-01-24T01:16:05;1.10;;;1.00;;
45812;SDS011;31519;45.408;10.962;2023-01-24T01:18:37;1.23;;;0.95;;
45812;SDS011;31519;45.408;10.962;2023-01-24T01:21:07;1.40;;;1.05;;
45812;SDS011;31519;45.408;10.962;2023-01-24T01:23:37;1.25;;;1.15;;
45812;SDS011;31519;45.408;10.962;2023-01-24T01:26:06;2.50;;;1.60;;
45812;SDS011;31519;45.408;10.962;2023-01-24T01:28:36;2.30;;;1.35;;
45812;SDS011;31519;45.408;10.962;2023-01-24T01:31:04;2.75;;;1.25;;
45812;SDS011;31519;45.408;10.962;2023-01-24T01:33:33;1.95;;;1.15;;
45812;SDS011;31519;45.408;10.962;2023-01-24T01:36:01;1.63;;;1.27;;
45812;SDS011;31519;45.408;10.962;2023-01-24T01:38:30;1.42;;;1.30;;
45812;SDS011;31519;45.408;10.962;2023-01-24T01:40:59;1.90;;;1.45;;
45812;SDS011;31519;45.408;10.962;2023-01-24T01:43:28;1.10;;;1.00;;
45812;SDS011;31519;45.408;10.962;2023-01-24T01:45:59;1.65;;;0.93;;
45812;SDS011;31519;45.408;10.962;2023-01-24T01:48:57;2.05;;;1.02;;
45812;SDS011;31519;45.408;10.962;2023-01-24T01:51:41;0.90;;;0.90;;
45812;SDS011;31519;45.408;10.962;2023-01-24T01:54:19;2.10;;;1.27;;
45812;SDS011;31519;45.408;10.962;2023-01-24T01:56:57;1.02;;;0.88;;
45812;SDS011;31519;45.408;10.962;2023-01-24T01:59:31;1.95;;;0.90;;
45812;SDS011;31519;45.408;10.962;2023-01-24T02:02:03;1.77;;;1.17;;
45812;SDS011;31519;45.408;10.962;2023-01-24T02:04:38;1.30;;;1.15;;
45812;SDS011;31519;45.408;10.962;2023-01-24T02:09:51;1.20;;;1.20;;
45812;SDS011;31519;45.408;10.962;2023-01-24T02:12:28;1.15;;;1.10;;
45812;SDS011;31519;45.408;10.962;2023-01-24T02:15:01;1.33;;;1.23;;
45812;SDS011;31519;45.408;10.962;2023-01-24T02:17:52;3.58;;;1.75;;
45812;SDS011;31519;45.408;10.962;2023-01-24T02:20:36;1.88;;;1.35;;
45812;SDS011;31519;45.408;10.962;2023-01-24T02:29:08;2.35;;;1.70;;
45812;SDS011;31519;45.408;10.962;2023-01-24T02:31:57;1.60;;;1.50;;
45812;SDS011;31519;45.408;10.962;2023-01-24T02:34:29;1.75;;;1.27;;
45812;SDS011;31519;45.408;10.962;2023-01-24T02:37:00;2.28;;;1.60;;
45812;SDS011;31519;45.408;10.962;2023-01-24T02:39:35;1.55;;;1.38;;
45812;SDS011;31519;45.408;10.962;2023-01-24T02:42:21;2.58;;;1.75;;
45812;SDS011;31519;45.408;10.962;2023-01-24T02:45:05;1.92;;;1.63;;
45812;SDS011;31519;45.408;10.962;2023-01-24T02:47:38;2.72;;;1.83;;
45812;SDS011;31519;45.408;10.962;2023-01-24T02:50:11;2.35;;;1.55;;
45812;SDS011;31519;45.408;10.962;2023-01-24T02:52:40;2.20;;;1.58;;
45812;SDS011;31519;45.408;10.962;2023-01-24T02:55:27;2.47;;;1.65;;
45812;SDS011;31519;45.408;10.962;2023-01-24T02:57:56;2.67;;;1.92;;
45812;SDS011;31519;45.408;10.962;2023-01-24T03:00:40;2.83;;;1.33;;
45812;SDS011;31519;45.408;10.962;2023-01-24T03:03:13;1.70;;;1.58;;
45812;SDS011;31519;45.408;10.962;2023-01-24T03:05:43;1.45;;;1.35;;
45812;SDS011;31519;45.408;10.962;2023-01-24T03:08:37;2.90;;;1.95;;
45812;SDS011;31519;45.408;10.962;2023-01-24T03:11:15;2.83;;;1.73;;
45812;SDS011;31519;45.408;10.962;2023-01-24T03:13:43;2.60;;;1.75;;
45812;SDS011;31519;45.408;10.962;2023-01-24T03:16:30;1.65;;;1.55;;
45812;SDS011;31519;45.408;10.962;2023-01-24T03:19:16;1.80;;;1.55;;
45812;SDS011;31519;45.408;10.962;2023-01-24T03:22:03;1.58;;;1.40;;
45812;SDS011;31519;45.408;10.962;2023-01-24T03:24:50;3.20;;;1.42;;
45812;SDS011;31519;45.408;10.962;2023-01-24T03:27:37;1.60;;;1.50;;
45812;SDS011;31519;45.408;10.962;2023-01-24T03:30:29;2.22;;;1.50;;
45812;SDS011;31519;45.408;10.962;2023-01-24T03:33:16;2.53;;;1.50;;
45812;SDS011;31519;45.408;10.962;2023-01-24T03:36:06;3.20;;;1.65;;
45812;SDS011;31519;45.408;10.962;2023-01-24T03:38:37;1.42;;;1.33;;
45812;SDS011;31519;45.408;10.962;2023-01-24T03:41:26;1.65;;;1.55;;
45812;SDS011;31519;45.408;10.962;2023-01-24T03:43:55;2.90;;;1.95;;
45812;SDS011;31519;45.408;10.962;2023-01-24T03:46:24;1.95;;;1.38;;
45812;SDS011;31519;45.408;10.962;2023-01-24T03:48:53;2.00;;;1.50;;
45812;SDS011;31519;45.408;10.962;2023-01-24T03:51:32;1.13;;;1.00;;
45812;SDS011;31519;45.408;10.962;2023-01-24T03:54:19;1.10;;;1.10;;
45812;SDS011;31519;45.408;10.962;2023-01-24T03:56:56;2.75;;;1.65;;
45812;SDS011;31519;45.408;10.962;2023-01-24T03:59:25;3.70;;;1.38;;
45812;SDS011;31519;45.408;10.962;2023-01-24T04:01:53;2.20;;;1.70;;
45812;SDS011;31519;45.408;10.962;2023-01-24T04:04:27;2.33;;;1.90;;
45812;SDS011;31519;45.408;10.962;2023-01-24T04:07:16;1.33;;;1.23;;
45812;SDS011;31519;45.408;10.962;2023-01-24T04:10:07;1.27;;;1.20;;
45812;SDS011;31519;45.408;10.962;2023-01-24T04:12:42;2.00;;;1.23;;
45812;SDS011;31519;45.408;10.962;2023-01-24T04:15:14;4.63;;;1.30;;
45812;SDS011;31519;45.408;10.962;2023-01-24T04:17:59;1.75;;;1.30;;
45812;SDS011;31519;45.408;10.962;2023-01-24T04:20:30;0.90;;;0.90;;
45812;SDS011;31519;45.408;10.962;2023-01-24T04:23:02;1.13;;;0.97;;
45812;SDS011;31519;45.408;10.962;2023-01-24T04:25:34;1.38;;;1.02;;
45812;SDS011;31519;45.408;10.962;2023-01-24T04:28:03;1.33;;;1.08;;
45812;SDS011;31519;45.408;10.962;2023-01-24T04:30:34;1.27;;;1.13;;
45812;SDS011;31519;45.408;10.962;2023-01-24T04:33:06;1.20;;;1.10;;
45812;SDS011;31519;45.408;10.962;2023-01-24T04:35:34;1.60;;;1.20;;
45812;SDS011;31519;45.408;10.962;2023-01-24T04:38:03;1.83;;;1.30;;
45812;SDS011;31519;45.408;10.962;2023-01-24T04:40:58;1.42;;;1.05;;
45812;SDS011;31519;45.408;10.962;2023-01-24T04:43:37;1.13;;;1.00;;
45812;SDS011;31519;45.408;10.962;2023-01-24T04:46:07;1.20;;;1.10;;
45812;SDS011;31519;45.408;10.962;2023-01-24T04:48:55;1.15;;;1.08;;
45812;SDS011;31519;45.408;10.962;2023-01-24T04:51:42;2.47;;;1.10;;
45812;SDS011;31519;45.408;10.962;2023-01-24T04:54:17;1.23;;;1.13;;
45812;SDS011;31519;45.408;10.962;2023-01-24T04:56:49;3.47;;;1.50;;
45812;SDS011;31519;45.408;10.962;2023-01-24T04:59:17;2.80;;;1.33;;
45812;SDS011;31519;45.408;10.962;2023-01-24T05:01:48;3.75;;;1.55;;
45812;SDS011;31519;45.408;10.962;2023-01-24T05:04:33;1.15;;;1.05;;
45812;SDS011;31519;45.408;10.962;2023-01-24T05:07:01;1.70;;;1.50;;
45812;SDS011;31519;45.408;10.962;2023-01-24T05:09:31;1.55;;;1.10;;
45812;SDS011;31519;45.408;10.962;2023-01-24T05:12:04;1.23;;;1.02;;
45812;SDS011;31519;45.408;10.962;2023-01-24T05:14:34;2.47;;;1.40;;
45812;SDS011;31519;45.408;10.962;2023-01-24T05:17:04;1.85;;;1.23;;
45812;SDS011;31519;45.408;10.962;2023-01-24T05:19:34;1.42;;;1.33;;
45812;SDS011;31519;45.408;10.962;2023-01-24T05:22:04;2.50;;;1.45;;
45812;SDS011;31519;45.408;10.962;2023-01-24T05:24:37;1.40;;;1.20;;
45812;SDS011;31519;45.408;10.962;2023-01-24T05:27:08;1.77;;;1.40;;
45812;SDS011;31519;45.408;10.962;2023-01-24T05:29:40;2.25;;;1.67;;
45812;SDS011;31519;45.408;10.962;2023-01-24T05:32:11;2.08;;;1.77;;
45812;SDS011;31519;45.408;10.962;2023-01-24T05:34:41;2.80;;;2.03;;
45812;SDS011;31519;45.408;10.962;2023-01-24T05:37:09;3.75;;;1.88;;
45812;SDS011;31519;45.408;10.962;2023-01-24T05:39:41;2.00;;;1.58;;
45812;SDS011;31519;45.408;10.962;2023-01-24T05:42:11;2.03;;;1.48;;
45812;SDS011;31519;45.408;10.962;2023-01-24T05:44:44;3.65;;;1.77;;
45812;SDS011;31519;45.408;10.962;2023-01-24T05:47:13;1.63;;;1.45;;
45812;SDS011;31519;45.408;10.962;2023-01-24T05:49:45;2.67;;;1.70;;
45812;SDS011;31519;45.408;10.962;2023-01-24T05:52:14;5.43;;;1.92;;
45812;SDS011;31519;45.408;10.962;2023-01-24T05:54:52;2.53;;;1.67;;
45812;SDS011;31519;45.408;10.962;2023-01-24T05:57:36;5.97;;;2.47;;
45812;SDS011;31519;45.408;10.962;2023-01-24T06:00:17;5.82;;;2.35;;
45812;SDS011;31519;45.408;10.962;2023-01-24T06:03:05;2.67;;;2.22;;
45812;SDS011;31519;45.408;10.962;2023-01-24T06:05:34;7.60;;;2.80;;
45812;SDS011;31519;45.408;10.962;2023-01-24T06:08:03;5.75;;;2.83;;
45812;SDS011;31519;45.408;10.962;2023-01-24T06:10:31;4.57;;;2.85;;
45812;SDS011;31519;45.408;10.962;2023-01-24T06:13:11;3.22;;;2.30;;
45812;SDS011;31519;45.408;10.962;2023-01-24T06:15:40;2.40;;;2.20;;
45812;SDS011;31519;45.408;10.962;2023-01-24T06:18:15;3.85;;;2.70;;
45812;SDS011;31519;45.408;10.962;2023-01-24T06:20:49;3.30;;;2.58;;
45812;SDS011;31519;45.408;10.962;2023-01-24T06:23:22;4.63;;;2.63;;
45812;SDS011;31519;45.408;10.962;2023-01-24T06:25:56;4.68;;;2.25;;
45812;SDS011;31519;45.408;10.962;2023-01-24T06:28:25;3.90;;;2.60;;
45812;SDS011;31519;45.408;10.962;2023-01-24T06:31:02;3.05;;;2.35;;
45812;SDS011;31519;45.408;10.962;2023-01-24T06:33:52;3.13;;;2.38;;
45812;SDS011;31519;45.408;10.962;2023-01-24T06:36:27;6.07;;;2.33;;
45812;SDS011;31519;45.408;10.962;2023-01-24T06:38:58;8.02;;;2.83;;
45812;SDS011;31519;45.408;10.962;2023-01-24T06:41:26;3.33;;;2.50;;
45812;SDS011;31519;45.408;10.962;2023-01-24T06:43:54;4.90;;;2.78;;
45812;SDS011;31519;45.408;10.962;2023-01-24T06:46:23;5.25;;;2.50;;
45812;SDS011;31519;45.408;10.962;2023-01-24T06:48:52;4.97;;;2.80;;
45812;SDS011;31519;45.408;10.962;2023-01-24T06:51:20;5.00;;;3.20;;
45812;SDS011;31519;45.408;10.962;2023-01-24T06:53:49;6.15;;;3.03;;
45812;SDS011;31519;45.408;10.962;2023-01-24T06:56:18;10.02;;;3.40;;
45812;SDS011;31519;45.408;10.962;2023-01-24T06:58:47;4.65;;;2.80;;
45812;SDS011;31519;45.408;10.962;2023-01-24T07:01:15;6.22;;;3.50;;
45812;SDS011;31519;45.408;10.962;2023-01-24T07:03:43;6.18;;;3.60;;
45812;SDS011;31519;45.408;10.962;2023-01-24T07:06:11;10.68;;;4.18;;
45812;SDS011;31519;45.408;10.962;2023-01-24T07:08:41;9.25;;;3.13;;
45812;SDS011;31519;45.408;10.962;2023-01-24T07:11:09;3.15;;;2.83;;
45812;SDS011;31519;45.408;10.962;2023-01-24T07:13:37;5.53;;;3.15;;
45812;SDS011;31519;45.408;10.962;2023-01-24T07:16:05;12.10;;;3.78;;
45812;SDS011;31519;45.408;10.962;2023-01-24T07:18:34;9.63;;;4.07;;
45812;SDS011;31519;45.408;10.962;2023-01-24T07:21:06;6.78;;;3.78;;
45812;SDS011;31519;45.408;10.962;2023-01-24T07:23:36;12.15;;;3.83;;
45812;SDS011;31519;45.408;10.962;2023-01-24T07:26:04;6.82;;;3.75;;
45812;SDS011;31519;45.408;10.962;2023-01-24T07:28:37;9.02;;;4.32;;
45812;SDS011;31519;45.408;10.962;2023-01-24T07:31:06;6.85;;;4.68;;
45812;SDS011;31519;45.408;10.962;2023-01-24T07:33:35;7.63;;;3.80;;
45812;SDS011;31519;45.408;10.962;2023-01-24T07:36:13;12.65;;;4.10;;
45812;SDS011;31519;45.408;10.962;2023-01-24T07:38:42;6.78;;;4.47;;
45812;SDS011;31519;45.408;10.962;2023-01-24T07:41:10;7.38;;;3.58;;
45812;SDS011;31519;45.408;10.962;2023-01-24T07:43:39;5.07;;;3.47;;
45812;SDS011;31519;45.408;10.962;2023-01-24T07:46:07;6.88;;;3.47;;
45812;SDS011;31519;45.408;10.962;2023-01-24T07:48:35;7.43;;;3.80;;
45812;SDS011;31519;45.408;10.962;2023-01-24T07:51:04;7.05;;;3.83;;
45812;SDS011;31519;45.408;10.962;2023-01-24T07:53:33;6.10;;;3.25;;
45812;SDS011;31519;45.408;10.962;2023-01-24T07:56:03;8.38;;;3.30;;
45812;SDS011;31519;45.408;10.962;2023-01-24T07:58:35;8.07;;;4.70;;
45812;SDS011;31519;45.408;10.962;2023-01-24T08:01:03;5.95;;;2.95;;
45812;SDS011;31519;45.408;10.962;2023-01-24T08:03:31;6.60;;;2.88;;
45812;SDS011;31519;45.408;10.962;2023-01-24T08:05:59;14.25;;;4.78;;
45812;SDS011;31519;45.408;10.962;2023-01-24T08:08:29;11.68;;;3.13;;
45812;SDS011;31519;45.408;10.962;2023-01-24T08:10:56;6.65;;;3.60;;
45812;SDS011;31519;45.408;10.962;2023-01-24T08:13:25;5.60;;;3.40;;
45812;SDS011;31519;45.408;10.962;2023-01-24T08:15:53;6.85;;;3.47;;
45812;SDS011;31519;45.408;10.962;2023-01-24T08:18:21;5.68;;;3.97;;
45812;SDS011;31519;45.408;10.962;2023-01-24T08:20:49;5.88;;;3.63;;
45812;SDS011;31519;45.408;10.962;2023-01-24T08:23:21;4.95;;;3.20;;
45812;SDS011;31519;45.408;10.962;2023-01-24T08:25:49;7.45;;;3.58;;
45812;SDS011;31519;45.408;10.962;2023-01-24T08:28:18;6.10;;;3.50;;
45812;SDS011;31519;45.408;10.962;2023-01-24T08:30:45;6.93;;;3.97;;
45812;SDS011;31519;45.408;10.962;2023-01-24T08:33:15;8.00;;;4.38;;
45812;SDS011;31519;45.408;10.962;2023-01-24T08:35:46;8.02;;;4.68;;
45812;SDS011;31519;45.408;10.962;2023-01-24T08:38:15;8.88;;;4.72;;
45812;SDS011;31519;45.408;10.962;2023-01-24T08:40:43;10.02;;;5.60;;
45812;SDS011;31519;45.408;10.962;2023-01-24T08:43:17;8.25;;;4.50;;
45812;SDS011;31519;45.408;10.962;2023-01-24T08:45:45;35.20;;;5.40;;
45812;SDS011;31519;45.408;10.962;2023-01-24T08:48:13;4.97;;;4.03;;
45812;SDS011;31519;45.408;10.962;2023-01-24T08:50:41;19.17;;;4.88;;
45812;SDS011;31519;45.408;10.962;2023-01-24T08:53:11;6.80;;;3.90;;
45812;SDS011;31519;45.408;10.962;2023-01-24T08:55:40;8.13;;;4.43;;
45812;SDS011;31519;45.408;10.962;2023-01-24T08:58:08;8.38;;;4.25;;
45812;SDS011;31519;45.408;10.962;2023-01-24T09:00:36;6.60;;;4.60;;
45812;SDS011;31519;45.408;10.962;2023-01-24T09:03:04;8.73;;;4.38;;
45812;SDS011;31519;45.408;10.962;2023-01-24T09:05:32;8.30;;;4.90;;
45812;SDS011;31519;45.408;10.962;2023-01-24T09:08:00;10.73;;;5.22;;
45812;SDS011;31519;45.408;10.962;2023-01-24T09:10:28;6.57;;;4.18;;
45812;SDS011;31519;45.408;10.962;2023-01-24T09:12:57;15.45;;;5.30;;
45812;SDS011;31519;45.408;10.962;2023-01-24T09:15:25;7.88;;;5.00;;
45812;SDS011;31519;45.408;10.962;2023-01-24T09:17:53;19.23;;;4.80;;
45812;SDS011;31519;45.408;10.962;2023-01-24T09:20:21;7.20;;;4.75;;
45812;SDS011;31519;45.408;10.962;2023-01-24T09:22:50;8.75;;;4.78;;
45812;SDS011;31519;45.408;10.962;2023-01-24T09:25:17;8.05;;;4.40;;
45812;SDS011;31519;45.408;10.962;2023-01-24T09:27:56;7.13;;;4.25;;
45812;SDS011;31519;45.408;10.962;2023-01-24T09:30:24;7.93;;;4.90;;
45812;SDS011;31519;45.408;10.962;2023-01-24T09:32:53;10.73;;;5.38;;
45812;SDS011;31519;45.408;10.962;2023-01-24T09:35:21;17.50;;;4.80;;
45812;SDS011;31519;45.408;10.962;2023-01-24T09:37:52;8.55;;;5.28;;
45812;SDS011;31519;45.408;10.962;2023-01-24T09:40:21;8.63;;;5.05;;
45812;SDS011;31519;45.408;10.962;2023-01-24T09:45:44;9.23;;;4.57;;
45812;SDS011;31519;45.408;10.962;2023-01-24T09:48:19;6.43;;;4.45;;
45812;SDS011;31519;45.408;10.962;2023-01-24T09:50:49;6.63;;;4.07;;
45812;SDS011;31519;45.408;10.962;2023-01-24T09:53:23;11.93;;;4.90;;
45812;SDS011;31519;45.408;10.962;2023-01-24T09:55:55;9.27;;;4.10;;
45812;SDS011;31519;45.408;10.962;2023-01-24T09:58:28;6.20;;;4.00;;
45812;SDS011;31519;45.408;10.962;2023-01-24T10:01:00;3.55;;;2.72;;
45812;SDS011;31519;45.408;10.962;2023-01-24T10:03:28;4.05;;;2.95;;
45812;SDS011;31519;45.408;10.962;2023-01-24T10:06:00;4.35;;;2.75;;
45812;SDS011;31519;45.408;10.962;2023-01-24T10:08:44;4.35;;;3.10;;
45812;SDS011;31519;45.408;10.962;2023-01-24T10:20:28;7.20;;;3.13;;
45812;SDS011;31519;45.408;10.962;2023-01-24T10:24:19;3.50;;;2.65;;
45812;SDS011;31519;45.408;10.962;2023-01-24T10:26:21;4.18;;;3.03;;
45812;SDS011;31519;45.408;10.962;2023-01-24T10:31:36;15.55;;;3.58;;
45812;SDS011;31519;45.408;10.962;2023-01-24T10:34:10;4.28;;;3.30;;
45812;SDS011;31519;45.408;10.962;2023-01-24T10:36:51;5.65;;;2.70;;
45812;SDS011;31519;45.408;10.962;2023-01-24T10:39:21;5.00;;;2.75;;
45812;SDS011;31519;45.408;10.962;2023-01-24T10:41:49;6.78;;;2.70;;
45812;SDS011;31519;45.408;10.962;2023-01-24T10:44:24;5.72;;;2.83;;
45812;SDS011;31519;45.408;10.962;2023-01-24T10:50:20;4.43;;;3.15;;
45812;SDS011;31519;45.408;10.962;2023-01-24T10:52:52;6.70;;;3.17;;
45812;SDS011;31519;45.408;10.962;2023-01-24T10:58:54;3.10;;;2.35;;
45812;SDS011;31519;45.408;10.962;2023-01-24T11:01:07;6.85;;;2.60;;
45812;SDS011;31519;45.408;10.962;2023-01-24T11:03:46;2.47;;;1.80;;
45812;SDS011;31519;45.408;10.962;2023-01-24T11:06:22;4.88;;;2.30;;
45812;SDS011;31519;45.408;10.962;2023-01-24T11:08:55;3.85;;;2.10;;
45812;SDS011;31519;45.408;10.962;2023-01-24T11:11:31;2.65;;;2.33;;
45812;SDS011;31519;45.408;10.962;2023-01-24T11:14:01;7.35;;;2.55;;
45812;SDS011;31519;45.408;10.962;2023-01-24T11:16:39;2.38;;;2.17;;
45812;SDS011;31519;45.408;10.962;2023-01-24T11:22:03;3.63;;;2.50;;
45812;SDS011;31519;45.408;10.962;2023-01-24T11:24:57;2.47;;;2.28;;
45812;SDS011;31519;45.408;10.962;2023-01-24T11:32:48;3.20;;;2.20;;
45812;SDS011;31519;45.408;10.962;2023-01-24T11:35:35;2.17;;;1.90;;
45812;SDS011;31519;45.408;10.962;2023-01-24T11:49:46;6.70;;;3.00;;
45812;SDS011;31519;45.408;10.962;2023-01-24T11:52:13;4.57;;;2.97;;
45812;SDS011;31519;45.408;10.962;2023-01-24T11:54:51;7.20;;;2.53;;
45812;SDS011;31519;45.408;10.962;2023-01-24T11:57:53;8.00;;;3.10;;
45812;SDS011;31519;45.408;10.962;2023-01-24T12:03:39;2.70;;;2.40;;
45812;SDS011;31519;45.408;10.962;2023-01-24T12:14:41;4.72;;;2.47;;
45812;SDS011;31519;45.408;10.962;2023-01-24T12:20:16;1.63;;;1.52;;
45812;SDS011;31519;45.408;10.962;2023-01-24T12:23:10;4.65;;;2.10;;
45812;SDS011;31519;45.408;10.962;2023-01-24T12:26:00;2.05;;;1.38;;
45812;SDS011;31519;45.408;10.962;2023-01-24T12:28:39;1.48;;;1.33;;
45812;SDS011;31519;45.408;10.962;2023-01-24T12:31:22;1.98;;;1.33;;
45812;SDS011;31519;45.408;10.962;2023-01-24T12:34:43;4.38;;;1.23;;
45812;SDS011;31519;45.408;10.962;2023-01-24T12:37:01;1.88;;;1.33;;
45812;SDS011;31519;45.408;10.962;2023-01-24T12:39:43;2.58;;;1.63;;
45812;SDS011;31519;45.408;10.962;2023-01-24T12:42:21;2.85;;;0.80;;
45812;SDS011;31519;45.408;10.962;2023-01-24T12:45:04;1.13;;;1.02;;
45812;SDS011;31519;45.408;10.962;2023-01-24T12:50:21;1.45;;;1.20;;
45812;SDS011;31519;45.408;10.962;2023-01-24T12:55:56;1.00;;;1.00;;
45812;SDS011;31519;45.408;10.962;2023-01-24T12:58:37;2.22;;;1.35;;
45812;SDS011;31519;45.408;10.962;2023-01-24T13:01:29;1.42;;;1.27;;
45812;SDS011;31519;45.408;10.962;2023-01-24T13:09:37;1.45;;;1.23;;
45812;SDS011;31519;45.408;10.962;2023-01-24T13:12:15;1.10;;;1.00;;
45812;SDS011;31519;45.408;10.962;2023-01-24T13:14:54;5.97;;;1.73;;
45812;SDS011;31519;45.408;10.962;2023-01-24T13:21:02;1.95;;;1.10;;
45812;SDS011;31519;45.408;10.962;2023-01-24T13:26:44;4.70;;;1.30;;
45812;SDS011;31519;45.408;10.962;2023-01-24T13:32:05;3.67;;;1.40;;
45812;SDS011;31519;45.408;10.962;2023-01-24T13:34:40;5.07;;;1.70;;
45812;SDS011;31519;45.408;10.962;2023-01-24T13:37:17;1.20;;;1.10;;
45812;SDS011;31519;45.408;10.962;2023-01-24T13:39:49;1.20;;;1.10;;
45812;SDS011;31519;45.408;10.962;2023-01-24T13:42:36;3.17;;;1.35;;
45812;SDS011;31519;45.408;10.962;2023-01-24T13:45:40;1.73;;;1.33;;
45812;SDS011;31519;45.408;10.962;2023-01-24T13:51:41;1.20;;;1.10;;
45812;SDS011;31519;45.408;10.962;2023-01-24T14:03:12;2.38;;;1.65;;
45812;SDS011;31519;45.408;10.962;2023-01-24T14:05:51;1.88;;;1.77;;
45812;SDS011;31519;45.408;10.962;2023-01-24T14:21:27;4.72;;;2.83;;
45812;SDS011;31519;45.408;10.962;2023-01-24T14:24:23;5.50;;;3.25;;
45812;SDS011;31519;45.408;10.962;2023-01-24T14:29:50;5.15;;;2.92;;
45812;SDS011;31519;45.408;10.962;2023-01-24T14:32:24;5.35;;;3.35;;
45812;SDS011;31519;45.408;10.962;2023-01-24T14:35:18;4.07;;;3.15;;
45812;SDS011;31519;45.408;10.962;2023-01-24T14:37:50;5.38;;;3.10;;
45812;SDS011;31519;45.408;10.962;2023-01-24T14:40:25;3.65;;;3.10;;
45812;SDS011;31519;45.408;10.962;2023-01-24T14:42:58;14.57;;;3.03;;
45812;SDS011;31519;45.408;10.962;2023-01-24T14:45:29;4.45;;;3.00;;
45812;SDS011;31519;45.408;10.962;2023-01-24T14:48:01;5.85;;;3.70;;
45812;SDS011;31519;45.408;10.962;2023-01-24T14:50:36;5.78;;;3.30;;
45812;SDS011;31519;45.408;10.962;2023-01-24T14:53:23;8.30;;;3.88;;
45812;SDS011;31519;45.408;10.962;2023-01-24T14:55:53;7.53;;;4.55;;
45812;SDS011;31519;45.408;10.962;2023-01-24T14:58:27;10.80;;;5.05;;
45812;SDS011;31519;45.408;10.962;2023-01-24T15:00:57;5.40;;;3.85;;
45812;SDS011;31519;45.408;10.962;2023-01-24T15:03:29;10.63;;;6.55;;
45812;SDS011;31519;45.408;10.962;2023-01-24T15:08:46;15.02;;;6.03;;
45812;SDS011;31519;45.408;10.962;2023-01-24T15:11:19;10.82;;;4.03;;
45812;SDS011;31519;45.408;10.962;2023-01-24T15:13:54;6.95;;;3.47;;
45812;SDS011;31519;45.408;10.962;2023-01-24T15:16:35;9.63;;;3.67;;
45812;SDS011;31519;45.408;10.962;2023-01-24T15:19:19;7.55;;;4.05;;
45812;SDS011;31519;45.408;10.962;2023-01-24T15:21:48;10.35;;;4.32;;
45812;SDS011;31519;45.408;10.962;2023-01-24T15:24:25;6.03;;;3.90;;
45812;SDS011;31519;45.408;10.962;2023-01-24T15:26:55;8.30;;;4.28;;
45812;SDS011;31519;45.408;10.962;2023-01-24T15:29:39;5.82;;;3.55;;
45812;SDS011;31519;45.408;10.962;2023-01-24T15:35:12;8.25;;;4.70;;
45812;SDS011;31519;45.408;10.962;2023-01-24T15:37:40;10.38;;;4.85;;
45812;SDS011;31519;45.408;10.962;2023-01-24T15:40:18;8.45;;;4.57;;
45812;SDS011;31519;45.408;10.962;2023-01-24T15:42:47;4.63;;;3.63;;
45812;SDS011;31519;45.408;10.962;2023-01-24T15:45:36;6.65;;;4.30;;
45812;SDS011;31519;45.408;10.962;2023-01-24T15:48:13;4.68;;;3.88;;
45812;SDS011;31519;45.408;10.962;2023-01-24T15:50:54;8.70;;;4.82;;
45812;SDS011;31519;45.408;10.962;2023-01-24T15:53:38;8.75;;;4.28;;
45812;SDS011;31519;45.408;10.962;2023-01-24T15:56:09;8.82;;;4.80;;
45812;SDS011;31519;45.408;10.962;2023-01-24T15:58:42;9.05;;;4.72;;
45812;SDS011;31519;45.408;10.962;2023-01-24T16:01:10;14.35;;;5.03;;
45812;SDS011;31519;45.408;10.962;2023-01-24T16:03:38;11.30;;;5.82;;
45812;SDS011;31519;45.408;10.962;2023-01-24T16:06:06;7.68;;;4.32;;
45812;SDS011;31519;45.408;10.962;2023-01-24T16:08:34;9.55;;;4.30;;
45812;SDS011;31519;45.408;10.962;2023-01-24T16:11:02;17.95;;;4.00;;
45812;SDS011;31519;45.408;10.962;2023-01-24T16:13:31;10.73;;;4.07;;
45812;SDS011;31519;45.408;10.962;2023-01-24T16:16:04;9.05;;;4.35;;
45812;SDS011;31519;45.408;10.962;2023-01-24T16:18:38;10.15;;;4.30;;
45812;SDS011;31519;45.408;10.962;2023-01-24T16:21:07;9.60;;;5.28;;
45812;SDS011;31519;45.408;10.962;2023-01-24T16:23:36;7.63;;;4.97;;
45812;SDS011;31519;45.408;10.962;2023-01-24T16:26:05;5.30;;;4.25;;
45812;SDS011;31519;45.408;10.962;2023-01-24T16:28:35;8.57;;;4.60;;
45812;SDS011;31519;45.408;10.962;2023-01-24T16:31:04;9.43;;;4.68;;
45812;SDS011;31519;45.408;10.962;2023-01-24T16:33:32;10.63;;;4.55;;
45812;SDS011;31519;45.408;10.962;2023-01-24T16:36:01;7.43;;;4.60;;
45812;SDS011;31519;45.408;10.962;2023-01-24T16:38:29;9.88;;;6.43;;
45812;SDS011;31519;45.408;10.962;2023-01-24T16:40:57;37.42;;;8.32;;
45812;SDS011;31519;45.408;10.962;2023-01-24T16:43:25;13.95;;;5.72;;
45812;SDS011;31519;45.408;10.962;2023-01-24T16:45:53;16.13;;;5.57;;
45812;SDS011;31519;45.408;10.962;2023-01-24T16:48:21;11.38;;;4.95;;
45812;SDS011;31519;45.408;10.962;2023-01-24T16:50:49;11.50;;;5.28;;
45812;SDS011;31519;45.408;10.962;2023-01-24T16:53:17;10.43;;;5.07;;
45812;SDS011;31519;45.408;10.962;2023-01-24T16:55:54;16.00;;;8.38;;
45812;SDS011;31519;45.408;10.962;2023-01-24T16:58:24;12.07;;;5.95;;
45812;SDS011;31519;45.408;10.962;2023-01-24T17:00:52;13.50;;;5.03;;
45812;SDS011;31519;45.408;10.962;2023-01-24T17:03:20;10.98;;;5.85;;
45812;SDS011;31519;45.408;10.962;2023-01-24T17:05:48;14.95;;;5.75;;
45812;SDS011;31519;45.408;10.962;2023-01-24T17:08:15;9.88;;;5.10;;
45812;SDS011;31519;45.408;10.962;2023-01-24T17:10:43;9.85;;;5.63;;